sensor_id;sensor_type;location;lat;lon;timestamp;temperature;humidity
5938;DHT22;2994;51.220;4.412;2023-06-04T00:02:22;20.09;39.40
5938;DHT22;2994;51.220;4.412;2023-06-04T00:04:48;20.04;39.30
5938;DHT22;2994;51.220;4.412;2023-06-04T00:07:13;20.02;39.33
5938;DHT22;2994;51.220;4.412;2023-06-04T00:09:39;19.99;39.49
5938;DHT22;2994;51.220;4.412;2023-06-04T00:12:05;19.99;39.48
5938;DHT22;2994;51.220;4.412;2023-06-04T00:14:30;19.91;39.81
5938;DHT22;2994;51.220;4.412;2023-06-04T00:16:56;19.89;40.27
5938;DHT22;2994;51.220;4.412;2023-06-04T00:19:21;19.86;40.54
5938;DHT22;2994;51.220;4.412;2023-06-04T00:21:47;19.85;40.66
5938;DHT22;2994;51.220;4.412;2023-06-04T00:24:12;19.85;40.71
5938;DHT22;2994;51.220;4.412;2023-06-04T00:26:38;19.80;41.22
5938;DHT22;2994;51.220;4.412;2023-06-04T00:29:04;19.71;41.11
5938;DHT22;2994;51.220;4.412;2023-06-04T00:31:29;19.72;40.97
5938;DHT22;2994;51.220;4.412;2023-06-04T00:33:55;19.71;40.98
5938;DHT22;2994;51.220;4.412;2023-06-04T00:36:20;19.70;40.65
5938;DHT22;2994;51.220;4.412;2023-06-04T00:38:46;19.66;41.09
5938;DHT22;2994;51.220;4.412;2023-06-04T00:41:11;19.62;41.40
5938;DHT22;2994;51.220;4.412;2023-06-04T00:43:37;19.58;41.43
5938;DHT22;2994;51.220;4.412;2023-06-04T00:46:02;19.57;41.50
5938;DHT22;2994;51.220;4.412;2023-06-04T00:48:28;19.53;41.36
5938;DHT22;2994;51.220;4.412;2023-06-04T00:50:55;19.50;41.74
5938;DHT22;2994;51.220;4.412;2023-06-04T00:53:23;19.47;41.86
5938;DHT22;2994;51.220;4.412;2023-06-04T00:55:48;19.43;41.65
5938;DHT22;2994;51.220;4.412;2023-06-04T00:58:14;19.42;41.58
5938;DHT22;2994;51.220;4.412;2023-06-04T01:00:41;19.39;41.56
5938;DHT22;2994;51.220;4.412;2023-06-04T01:03:13;19.36;41.58
5938;DHT22;2994;51.220;4.412;2023-06-04T01:06:11;19.30;41.89
5938;DHT22;2994;51.220;4.412;2023-06-04T01:08:39;19.27;41.68
5938;DHT22;2994;51.220;4.412;2023-06-04T01:11:07;19.23;42.17
5938;DHT22;2994;51.220;4.412;2023-06-04T01:13:33;19.22;42.42
5938;DHT22;2994;51.220;4.412;2023-06-04T01:15:58;19.17;42.25
5938;DHT22;2994;51.220;4.412;2023-06-04T01:18:27;19.17;42.31
5938;DHT22;2994;51.220;4.412;2023-06-04T01:20:58;19.14;41.97
5938;DHT22;2994;51.220;4.412;2023-06-04T01:23:37;19.11;42.23
5938;DHT22;2994;51.220;4.412;2023-06-04T01:26:08;19.07;42.27
5938;DHT22;2994;51.220;4.412;2023-06-04T01:28:36;19.03;42.37
5938;DHT22;2994;51.220;4.412;2023-06-04T01:31:03;19.02;42.26
5938;DHT22;2994;51.220;4.412;2023-06-04T01:33:29;18.98;42.27
5938;DHT22;2994;51.220;4.412;2023-06-04T01:35:55;18.95;42.58
5938;DHT22;2994;51.220;4.412;2023-06-04T01:38:21;18.93;42.39
5938;DHT22;2994;51.220;4.412;2023-06-04T01:40:47;18.88;42.26
5938;DHT22;2994;51.220;4.412;2023-06-04T01:43:12;18.87;42.71
5938;DHT22;2994;51.220;4.412;2023-06-04T01:45:38;18.85;42.61
5938;DHT22;2994;51.220;4.412;2023-06-04T01:48:05;18.81;42.52
5938;DHT22;2994;51.220;4.412;2023-06-04T01:50:30;18.77;42.68
5938;DHT22;2994;51.220;4.412;2023-06-04T01:52:56;18.74;42.74
5938;DHT22;2994;51.220;4.412;2023-06-04T01:55:22;18.72;43.53
5938;DHT22;2994;51.220;4.412;2023-06-04T01:57:48;18.71;43.52
5938;DHT22;2994;51.220;4.412;2023-06-04T02:00:14;18.70;43.12
5938;DHT22;2994;51.220;4.412;2023-06-04T02:02:46;18.67;43.06
5938;DHT22;2994;51.220;4.412;2023-06-04T02:05:13;18.64;43.51
5938;DHT22;2994;51.220;4.412;2023-06-04T02:07:40;18.57;43.43
5938;DHT22;2994;51.220;4.412;2023-06-04T02:10:09;18.55;43.74
5938;DHT22;2994;51.220;4.412;2023-06-04T02:12:40;18.57;43.62
5938;DHT22;2994;51.220;4.412;2023-06-04T02:15:10;18.55;43.46
5938;DHT22;2994;51.220;4.412;2023-06-04T02:17:36;18.53;43.83
5938;DHT22;2994;51.220;4.412;2023-06-04T02:20:08;18.52;43.83
5938;DHT22;2994;51.220;4.412;2023-06-04T02:22:35;18.51;43.51
5938;DHT22;2994;51.220;4.412;2023-06-04T02:25:00;18.49;43.56
5938;DHT22;2994;51.220;4.412;2023-06-04T02:27:25;18.48;44.00
5938;DHT22;2994;51.220;4.412;2023-06-04T02:29:51;18.47;43.80
5938;DHT22;2994;51.220;4.412;2023-06-04T02:32:17;18.46;43.96
5938;DHT22;2994;51.220;4.412;2023-06-04T02:34:42;18.41;44.06
5938;DHT22;2994;51.220;4.412;2023-06-04T02:37:08;18.38;44.14
5938;DHT22;2994;51.220;4.412;2023-06-04T02:39:33;18.36;44.21
5938;DHT22;2994;51.220;4.412;2023-06-04T02:41:59;18.29;43.80
5938;DHT22;2994;51.220;4.412;2023-06-04T02:44:24;18.28;44.32
5938;DHT22;2994;51.220;4.412;2023-06-04T02:46:50;18.28;44.29
5938;DHT22;2994;51.220;4.412;2023-06-04T02:49:15;18.28;44.22
5938;DHT22;2994;51.220;4.412;2023-06-04T02:51:41;18.27;44.14
5938;DHT22;2994;51.220;4.412;2023-06-04T02:54:07;18.26;44.22
5938;DHT22;2994;51.220;4.412;2023-06-04T02:56:34;18.24;44.68
5938;DHT22;2994;51.220;4.412;2023-06-04T02:59:00;18.22;44.45
5938;DHT22;2994;51.220;4.412;2023-06-04T03:01:26;18.13;44.80
5938;DHT22;2994;51.220;4.412;2023-06-04T03:03:55;18.13;44.49
5938;DHT22;2994;51.220;4.412;2023-06-04T03:06:21;18.12;44.56
5938;DHT22;2994;51.220;4.412;2023-06-04T03:08:51;18.11;44.44
5938;DHT22;2994;51.220;4.412;2023-06-04T03:11:17;18.09;44.80
5938;DHT22;2994;51.220;4.412;2023-06-04T03:13:46;18.08;44.65
5938;DHT22;2994;51.220;4.412;2023-06-04T03:16:12;18.06;44.99
5938;DHT22;2994;51.220;4.412;2023-06-04T03:18:37;18.03;45.11
5938;DHT22;2994;51.220;4.412;2023-06-04T03:21:07;18.03;45.25
5938;DHT22;2994;51.220;4.412;2023-06-04T03:23:33;18.00;44.90
5938;DHT22;2994;51.220;4.412;2023-06-04T03:26:00;18.00;44.93
5938;DHT22;2994;51.220;4.412;2023-06-04T03:28:26;17.97;44.99
5938;DHT22;2994;51.220;4.412;2023-06-04T03:30:51;17.95;45.36
5938;DHT22;2994;51.220;4.412;2023-06-04T03:33:17;17.93;45.13
5938;DHT22;2994;51.220;4.412;2023-06-04T03:35:42;17.91;45.40
5938;DHT22;2994;51.220;4.412;2023-06-04T03:38:08;17.89;45.47
5938;DHT22;2994;51.220;4.412;2023-06-04T03:40:33;17.88;45.27
5938;DHT22;2994;51.220;4.412;2023-06-04T03:42:59;17.84;45.18
5938;DHT22;2994;51.220;4.412;2023-06-04T03:45:25;17.81;45.14
5938;DHT22;2994;51.220;4.412;2023-06-04T03:47:51;17.78;45.46
5938;DHT22;2994;51.220;4.412;2023-06-04T03:50:18;17.76;45.76
5938;DHT22;2994;51.220;4.412;2023-06-04T03:52:43;17.75;46.02
5938;DHT22;2994;51.220;4.412;2023-06-04T03:55:09;17.74;46.09
5938;DHT22;2994;51.220;4.412;2023-06-04T03:57:36;17.76;45.70
5938;DHT22;2994;51.220;4.412;2023-06-04T04:00:04;17.70;45.79
5938;DHT22;2994;51.220;4.412;2023-06-04T04:02:31;17.68;46.06
5938;DHT22;2994;51.220;4.412;2023-06-04T04:04:56;17.64;45.83
5938;DHT22;2994;51.220;4.412;2023-06-04T04:07:22;17.58;46.00
5938;DHT22;2994;51.220;4.412;2023-06-04T04:09:48;17.56;46.36
5938;DHT22;2994;51.220;4.412;2023-06-04T04:12:13;17.55;46.23
5938;DHT22;2994;51.220;4.412;2023-06-04T04:14:39;17.56;45.97
5938;DHT22;2994;51.220;4.412;2023-06-04T04:17:04;17.55;46.12
5938;DHT22;2994;51.220;4.412;2023-06-04T04:19:30;17.56;46.52
5938;DHT22;2994;51.220;4.412;2023-06-04T04:21:56;17.56;46.58
5938;DHT22;2994;51.220;4.412;2023-06-04T04:24:25;17.54;46.83
5938;DHT22;2994;51.220;4.412;2023-06-04T04:26:51;17.56;46.80
5938;DHT22;2994;51.220;4.412;2023-06-04T04:29:23;17.52;46.22
5938;DHT22;2994;51.220;4.412;2023-06-04T04:31:52;17.51;46.36
5938;DHT22;2994;51.220;4.412;2023-06-04T04:34:18;17.48;46.64
5938;DHT22;2994;51.220;4.412;2023-06-04T04:36:49;17.46;46.35
5938;DHT22;2994;51.220;4.412;2023-06-04T04:39:21;17.48;46.86
5938;DHT22;2994;51.220;4.412;2023-06-04T04:41:47;17.49;46.67
5938;DHT22;2994;51.220;4.412;2023-06-04T04:44:12;17.49;46.76
5938;DHT22;2994;51.220;4.412;2023-06-04T04:46:38;17.49;47.04
5938;DHT22;2994;51.220;4.412;2023-06-04T04:49:03;17.51;46.63
5938;DHT22;2994;51.220;4.412;2023-06-04T04:51:28;17.50;46.47
5938;DHT22;2994;51.220;4.412;2023-06-04T04:53:54;17.45;46.57
5938;DHT22;2994;51.220;4.412;2023-06-04T04:56:20;17.33;47.49
5938;DHT22;2994;51.220;4.412;2023-06-04T04:58:47;17.45;46.70
5938;DHT22;2994;51.220;4.412;2023-06-04T05:01:13;17.51;46.64
5938;DHT22;2994;51.220;4.412;2023-06-04T05:03:38;17.53;46.99
5938;DHT22;2994;51.220;4.412;2023-06-04T05:06:04;17.55;46.77
5938;DHT22;2994;51.220;4.412;2023-06-04T05:08:29;17.55;46.57
5938;DHT22;2994;51.220;4.412;2023-06-04T05:10:55;17.58;46.67
5938;DHT22;2994;51.220;4.412;2023-06-04T05:13:21;17.55;46.57
5938;DHT22;2994;51.220;4.412;2023-06-04T05:15:47;17.60;46.80
5938;DHT22;2994;51.220;4.412;2023-06-04T05:18:14;17.62;46.37
5938;DHT22;2994;51.220;4.412;2023-06-04T05:20:41;17.62;46.98
5938;DHT22;2994;51.220;4.412;2023-06-04T05:23:08;17.62;46.67
5938;DHT22;2994;51.220;4.412;2023-06-04T05:25:33;17.63;46.06
5938;DHT22;2994;51.220;4.412;2023-06-04T05:27:59;17.65;46.22
5938;DHT22;2994;51.220;4.412;2023-06-04T05:30:24;17.68;46.19
5938;DHT22;2994;51.220;4.412;2023-06-04T05:32:50;17.68;46.38
5938;DHT22;2994;51.220;4.412;2023-06-04T05:35:16;17.70;45.92
5938;DHT22;2994;51.220;4.412;2023-06-04T05:37:42;17.72;45.86
5938;DHT22;2994;51.220;4.412;2023-06-04T05:40:08;17.70;45.67
5938;DHT22;2994;51.220;4.412;2023-06-04T05:42:35;17.73;45.67
5938;DHT22;2994;51.220;4.412;2023-06-04T05:45:00;17.77;45.93
5938;DHT22;2994;51.220;4.412;2023-06-04T05:47:27;17.79;45.54
5938;DHT22;2994;51.220;4.412;2023-06-04T05:49:54;17.82;46.22
5938;DHT22;2994;51.220;4.412;2023-06-04T05:52:19;17.84;46.03
5938;DHT22;2994;51.220;4.412;2023-06-04T05:54:45;17.85;45.16
5938;DHT22;2994;51.220;4.412;2023-06-04T05:57:10;17.88;45.28
5938;DHT22;2994;51.220;4.412;2023-06-04T05:59:36;17.92;45.38
5938;DHT22;2994;51.220;4.412;2023-06-04T06:02:01;17.92;45.16
5938;DHT22;2994;51.220;4.412;2023-06-04T06:04:27;17.95;45.03
5938;DHT22;2994;51.220;4.412;2023-06-04T06:06:53;18.00;45.83
5938;DHT22;2994;51.220;4.412;2023-06-04T06:09:19;18.02;44.79
5938;DHT22;2994;51.220;4.412;2023-06-04T06:11:45;18.07;44.80
5938;DHT22;2994;51.220;4.412;2023-06-04T06:14:10;18.08;45.34
5938;DHT22;2994;51.220;4.412;2023-06-04T06:16:36;18.14;44.75
5938;DHT22;2994;51.220;4.412;2023-06-04T06:19:01;18.17;45.58
5938;DHT22;2994;51.220;4.412;2023-06-04T06:21:27;18.22;44.76
5938;DHT22;2994;51.220;4.412;2023-06-04T06:23:53;18.28;43.70
5938;DHT22;2994;51.220;4.412;2023-06-04T06:26:19;18.30;43.66
5938;DHT22;2994;51.220;4.412;2023-06-04T06:28:44;18.36;44.32
5938;DHT22;2994;51.220;4.412;2023-06-04T06:31:10;18.41;44.92
5938;DHT22;2994;51.220;4.412;2023-06-04T06:33:35;18.43;44.78
5938;DHT22;2994;51.220;4.412;2023-06-04T06:36:15;18.48;45.28
5938;DHT22;2994;51.220;4.412;2023-06-04T06:38:44;18.52;43.75
5938;DHT22;2994;51.220;4.412;2023-06-04T06:41:10;18.56;44.54
5938;DHT22;2994;51.220;4.412;2023-06-04T06:43:36;18.64;43.06
5938;DHT22;2994;51.220;4.412;2023-06-04T06:46:01;18.69;42.00
5938;DHT22;2994;51.220;4.412;2023-06-04T06:48:27;18.70;42.22
5938;DHT22;2994;51.220;4.412;2023-06-04T06:50:53;18.76;42.16
5938;DHT22;2994;51.220;4.412;2023-06-04T06:53:19;18.82;43.23
5938;DHT22;2994;51.220;4.412;2023-06-04T06:55:44;18.85;43.81
5938;DHT22;2994;51.220;4.412;2023-06-04T06:58:10;18.88;42.27
5938;DHT22;2994;51.220;4.412;2023-06-04T07:00:35;18.95;43.07
5938;DHT22;2994;51.220;4.412;2023-06-04T07:03:00;19.02;41.55
5938;DHT22;2994;51.220;4.412;2023-06-04T07:05:26;19.07;43.17
5938;DHT22;2994;51.220;4.412;2023-06-04T07:07:52;19.12;43.42
5938;DHT22;2994;51.220;4.412;2023-06-04T07:10:17;19.15;42.56
5938;DHT22;2994;51.220;4.412;2023-06-04T07:12:43;19.23;40.91
5938;DHT22;2994;51.220;4.412;2023-06-04T07:15:08;19.28;43.39
5938;DHT22;2994;51.220;4.412;2023-06-04T07:17:34;19.33;42.31
5938;DHT22;2994;51.220;4.412;2023-06-04T07:20:00;19.38;41.95
5938;DHT22;2994;51.220;4.412;2023-06-04T07:22:26;19.40;40.72
5938;DHT22;2994;51.220;4.412;2023-06-04T07:24:52;19.48;41.45
5938;DHT22;2994;51.220;4.412;2023-06-04T07:27:18;19.57;40.55
5938;DHT22;2994;51.220;4.412;2023-06-04T07:29:44;19.67;42.82
5938;DHT22;2994;51.220;4.412;2023-06-04T07:32:10;19.71;42.36
5938;DHT22;2994;51.220;4.412;2023-06-04T07:34:35;19.77;43.22
5938;DHT22;2994;51.220;4.412;2023-06-04T07:37:02;19.84;40.70
5938;DHT22;2994;51.220;4.412;2023-06-04T07:39:28;19.89;41.24
5938;DHT22;2994;51.220;4.412;2023-06-04T07:41:53;19.98;39.74
5938;DHT22;2994;51.220;4.412;2023-06-04T07:44:20;20.06;41.43
5938;DHT22;2994;51.220;4.412;2023-06-04T07:46:46;20.12;42.58
5938;DHT22;2994;51.220;4.412;2023-06-04T07:49:11;20.19;40.50
5938;DHT22;2994;51.220;4.412;2023-06-04T07:51:36;20.29;42.46
5938;DHT22;2994;51.220;4.412;2023-06-04T07:54:02;20.34;42.35
5938;DHT22;2994;51.220;4.412;2023-06-04T07:56:28;20.43;37.95
5938;DHT22;2994;51.220;4.412;2023-06-04T07:58:53;20.50;38.40
5938;DHT22;2994;51.220;4.412;2023-06-04T08:01:19;20.63;40.10
5938;DHT22;2994;51.220;4.412;2023-06-04T08:03:45;20.70;38.01
5938;DHT22;2994;51.220;4.412;2023-06-04T08:06:10;20.78;40.14
5938;DHT22;2994;51.220;4.412;2023-06-04T08:08:36;20.89;38.98
5938;DHT22;2994;51.220;4.412;2023-06-04T08:11:02;20.96;41.40
5938;DHT22;2994;51.220;4.412;2023-06-04T08:13:28;21.07;35.21
5938;DHT22;2994;51.220;4.412;2023-06-04T08:15:53;21.13;36.41
5938;DHT22;2994;51.220;4.412;2023-06-04T08:18:19;21.22;35.81
5938;DHT22;2994;51.220;4.412;2023-06-04T08:20:44;21.25;34.90
5938;DHT22;2994;51.220;4.412;2023-06-04T08:23:10;21.37;38.13
5938;DHT22;2994;51.220;4.412;2023-06-04T08:25:35;21.49;34.26
5938;DHT22;2994;51.220;4.412;2023-06-04T08:28:01;21.59;33.34
5938;DHT22;2994;51.220;4.412;2023-06-04T08:30:26;21.63;32.98
5938;DHT22;2994;51.220;4.412;2023-06-04T08:32:53;21.70;33.73
5938;DHT22;2994;51.220;4.412;2023-06-04T08:35:18;21.82;33.58
5938;DHT22;2994;51.220;4.412;2023-06-04T08:37:44;21.88;32.22
5938;DHT22;2994;51.220;4.412;2023-06-04T08:40:10;21.99;32.50
5938;DHT22;2994;51.220;4.412;2023-06-04T08:42:43;22.04;32.26
5938;DHT22;2994;51.220;4.412;2023-06-04T08:45:12;22.10;30.98
5938;DHT22;2994;51.220;4.412;2023-06-04T08:47:43;22.23;32.38
5938;DHT22;2994;51.220;4.412;2023-06-04T08:50:10;22.34;30.11
5938;DHT22;2994;51.220;4.412;2023-06-04T08:52:37;22.42;33.10
5938;DHT22;2994;51.220;4.412;2023-06-04T08:55:03;22.56;29.50
5938;DHT22;2994;51.220;4.412;2023-06-04T08:57:30;22.56;33.35
5938;DHT22;2994;51.220;4.412;2023-06-04T08:59:56;22.75;28.81
5938;DHT22;2994;51.220;4.412;2023-06-04T09:02:21;22.77;27.27
5938;DHT22;2994;51.220;4.412;2023-06-04T09:04:47;22.84;28.63
5938;DHT22;2994;51.220;4.412;2023-06-04T09:07:16;22.91;26.81
5938;DHT22;2994;51.220;4.412;2023-06-04T09:09:44;22.94;28.03
5938;DHT22;2994;51.220;4.412;2023-06-04T09:12:12;23.00;26.67
5938;DHT22;2994;51.220;4.412;2023-06-04T09:14:40;23.16;27.26
5938;DHT22;2994;51.220;4.412;2023-06-04T09:17:05;23.17;27.19
5938;DHT22;2994;51.220;4.412;2023-06-04T09:19:31;23.25;27.00
5938;DHT22;2994;51.220;4.412;2023-06-04T09:21:58;23.14;27.29
5938;DHT22;2994;51.220;4.412;2023-06-04T09:24:38;23.42;26.39
5938;DHT22;2994;51.220;4.412;2023-06-04T09:27:12;23.52;27.99
5938;DHT22;2994;51.220;4.412;2023-06-04T09:29:53;23.64;25.50
5938;DHT22;2994;51.220;4.412;2023-06-04T09:32:25;23.67;24.68
5938;DHT22;2994;51.220;4.412;2023-06-04T09:34:52;23.75;23.97
5938;DHT22;2994;51.220;4.412;2023-06-04T09:37:18;23.81;26.01
5938;DHT22;2994;51.220;4.412;2023-06-04T09:39:54;23.94;24.36
5938;DHT22;2994;51.220;4.412;2023-06-04T09:42:20;23.95;25.13
5938;DHT22;2994;51.220;4.412;2023-06-04T09:44:46;24.10;25.35
5938;DHT22;2994;51.220;4.412;2023-06-04T09:47:12;24.11;24.94
5938;DHT22;2994;51.220;4.412;2023-06-04T09:49:49;24.20;23.65
5938;DHT22;2994;51.220;4.412;2023-06-04T09:52:16;24.30;23.65
5938;DHT22;2994;51.220;4.412;2023-06-04T09:54:42;24.35;26.46
5938;DHT22;2994;51.220;4.412;2023-06-04T09:57:18;24.57;23.36
5938;DHT22;2994;51.220;4.412;2023-06-04T09:59:45;24.66;22.92
5938;DHT22;2994;51.220;4.412;2023-06-04T10:02:12;24.48;24.80
5938;DHT22;2994;51.220;4.412;2023-06-04T10:04:41;24.62;24.98
5938;DHT22;2994;51.220;4.412;2023-06-04T10:07:11;24.78;23.67
5938;DHT22;2994;51.220;4.412;2023-06-04T10:09:39;24.86;23.56
5938;DHT22;2994;51.220;4.412;2023-06-04T10:12:13;24.85;22.50
5938;DHT22;2994;51.220;4.412;2023-06-04T10:14:47;24.83;25.84
5938;DHT22;2994;51.220;4.412;2023-06-04T10:17:15;24.92;24.48
5938;DHT22;2994;51.220;4.412;2023-06-04T10:19:43;25.02;22.66
5938;DHT22;2994;51.220;4.412;2023-06-04T10:22:10;25.24;21.99
5938;DHT22;2994;51.220;4.412;2023-06-04T10:33:01;25.39;21.10
5938;DHT22;2994;51.220;4.412;2023-06-04T10:35:33;25.49;21.66
5938;DHT22;2994;51.220;4.412;2023-06-04T10:38:06;25.44;21.85
5938;DHT22;2994;51.220;4.412;2023-06-04T10:40:33;25.58;20.82
5938;DHT22;2994;51.220;4.412;2023-06-04T10:43:05;25.54;21.26
5938;DHT22;2994;51.220;4.412;2023-06-04T10:45:31;25.50;21.78
5938;DHT22;2994;51.220;4.412;2023-06-04T10:48:06;25.66;21.25
5938;DHT22;2994;51.220;4.412;2023-06-04T10:50:46;25.65;22.46
5938;DHT22;2994;51.220;4.412;2023-06-04T10:53:12;25.72;20.51
5938;DHT22;2994;51.220;4.412;2023-06-04T10:55:45;25.78;21.15
5938;DHT22;2994;51.220;4.412;2023-06-04T10:58:11;25.54;22.80
5938;DHT22;2994;51.220;4.412;2023-06-04T11:01:02;25.52;21.31
5938;DHT22;2994;51.220;4.412;2023-06-04T11:03:42;25.42;22.45
5938;DHT22;2994;51.220;4.412;2023-06-04T11:06:15;25.86;20.50
5938;DHT22;2994;51.220;4.412;2023-06-04T11:08:42;25.90;20.44
5938;DHT22;2994;51.220;4.412;2023-06-04T11:11:12;25.87;21.34
5938;DHT22;2994;51.220;4.412;2023-06-04T11:13:39;25.91;22.94
5938;DHT22;2994;51.220;4.412;2023-06-04T11:16:17;25.90;20.49
5938;DHT22;2994;51.220;4.412;2023-06-04T11:18:43;25.84;19.48
5938;DHT22;2994;51.220;4.412;2023-06-04T11:21:09;25.95;20.32
5938;DHT22;2994;51.220;4.412;2023-06-04T11:23:39;25.91;21.57
5938;DHT22;2994;51.220;4.412;2023-06-04T11:26:05;25.94;21.41
5938;DHT22;2994;51.220;4.412;2023-06-04T11:28:31;25.99;23.06
5938;DHT22;2994;51.220;4.412;2023-06-04T11:31:01;26.10;21.41
5938;DHT22;2994;51.220;4.412;2023-06-04T11:33:47;26.40;18.89
5938;DHT22;2994;51.220;4.412;2023-06-04T11:36:29;26.02;20.90
5938;DHT22;2994;51.220;4.412;2023-06-04T11:38:55;26.22;21.78
5938;DHT22;2994;51.220;4.412;2023-06-04T11:41:22;26.66;19.25
5938;DHT22;2994;51.220;4.412;2023-06-04T11:43:48;26.45;21.34
5938;DHT22;2994;51.220;4.412;2023-06-04T11:46:13;26.58;19.59
5938;DHT22;2994;51.220;4.412;2023-06-04T11:48:39;26.70;19.47
5938;DHT22;2994;51.220;4.412;2023-06-04T11:51:07;26.92;19.34
5938;DHT22;2994;51.220;4.412;2023-06-04T11:53:33;26.91;18.70
5938;DHT22;2994;51.220;4.412;2023-06-04T11:56:00;26.98;17.61
5938;DHT22;2994;51.220;4.412;2023-06-04T11:58:26;26.71;19.74
5938;DHT22;2994;51.220;4.412;2023-06-04T12:00:51;26.71;19.18
5938;DHT22;2994;51.220;4.412;2023-06-04T12:03:17;27.01;21.30
5938;DHT22;2994;51.220;4.412;2023-06-04T12:05:42;27.11;19.65
5938;DHT22;2994;51.220;4.412;2023-06-04T12:08:09;27.39;17.45
5938;DHT22;2994;51.220;4.412;2023-06-04T12:10:40;27.50;18.20
5938;DHT22;2994;51.220;4.412;2023-06-04T12:13:06;27.09;22.23
5938;DHT22;2994;51.220;4.412;2023-06-04T12:15:31;27.45;21.34
5938;DHT22;2994;51.220;4.412;2023-06-04T12:17:57;27.29;21.70
5938;DHT22;2994;51.220;4.412;2023-06-04T12:29:01;28.31;20.02
5938;DHT22;2994;51.220;4.412;2023-06-04T12:31:29;28.00;20.15
5938;DHT22;2994;51.220;4.412;2023-06-04T12:34:02;28.52;19.96
5938;DHT22;2994;51.220;4.412;2023-06-04T12:36:28;28.41;17.95
5938;DHT22;2994;51.220;4.412;2023-06-04T12:38:58;28.72;20.73
5938;DHT22;2994;51.220;4.412;2023-06-04T12:41:24;28.63;19.62
5938;DHT22;2994;51.220;4.412;2023-06-04T12:43:50;29.07;16.92
5938;DHT22;2994;51.220;4.412;2023-06-04T12:46:16;28.99;18.45
5938;DHT22;2994;51.220;4.412;2023-06-04T12:48:42;29.23;17.90
5938;DHT22;2994;51.220;4.412;2023-06-04T12:51:08;29.37;16.09
5938;DHT22;2994;51.220;4.412;2023-06-04T12:53:38;29.35;17.90
5938;DHT22;2994;51.220;4.412;2023-06-04T12:56:04;29.41;17.20
5938;DHT22;2994;51.220;4.412;2023-06-04T12:58:30;29.61;17.90
5938;DHT22;2994;51.220;4.412;2023-06-04T13:00:55;29.51;18.56
5938;DHT22;2994;51.220;4.412;2023-06-04T13:03:20;29.81;15.90
5938;DHT22;2994;51.220;4.412;2023-06-04T13:05:46;29.89;16.36
5938;DHT22;2994;51.220;4.412;2023-06-04T13:08:11;29.93;16.71
5938;DHT22;2994;51.220;4.412;2023-06-04T13:10:37;30.22;16.00
5938;DHT22;2994;51.220;4.412;2023-06-04T13:15:36;30.32;17.74
5938;DHT22;2994;51.220;4.412;2023-06-04T13:18:02;30.21;15.58
5938;DHT22;2994;51.220;4.412;2023-06-04T13:20:28;30.19;17.84
5938;DHT22;2994;51.220;4.412;2023-06-04T13:22:54;30.34;17.70
5938;DHT22;2994;51.220;4.412;2023-06-04T13:25:19;30.51;14.68
5938;DHT22;2994;51.220;4.412;2023-06-04T13:27:45;30.65;15.93
5938;DHT22;2994;51.220;4.412;2023-06-04T13:30:11;30.80;15.47
5938;DHT22;2994;51.220;4.412;2023-06-04T13:32:36;30.95;14.74
5938;DHT22;2994;51.220;4.412;2023-06-04T13:35:02;30.94;14.40
5938;DHT22;2994;51.220;4.412;2023-06-04T13:37:27;30.95;15.83
5938;DHT22;2994;51.220;4.412;2023-06-04T13:39:53;30.84;16.09
5938;DHT22;2994;51.220;4.412;2023-06-04T13:42:18;30.96;15.34
5938;DHT22;2994;51.220;4.412;2023-06-04T13:44:44;30.95;16.91
5938;DHT22;2994;51.220;4.412;2023-06-04T13:47:09;31.30;14.42
5938;DHT22;2994;51.220;4.412;2023-06-04T13:49:35;31.36;15.79
5938;DHT22;2994;51.220;4.412;2023-06-04T13:52:00;31.44;16.18
5938;DHT22;2994;51.220;4.412;2023-06-04T13:54:26;31.46;14.74
5938;DHT22;2994;51.220;4.412;2023-06-04T13:56:51;31.64;14.99
5938;DHT22;2994;51.220;4.412;2023-06-04T13:59:17;31.48;14.98
5938;DHT22;2994;51.220;4.412;2023-06-04T14:01:43;31.70;13.77
5938;DHT22;2994;51.220;4.412;2023-06-04T14:04:08;31.76;14.67
5938;DHT22;2994;51.220;4.412;2023-06-04T14:06:37;31.86;15.66
5938;DHT22;2994;51.220;4.412;2023-06-04T14:09:04;31.99;15.18
5938;DHT22;2994;51.220;4.412;2023-06-04T14:11:32;31.98;15.34
5938;DHT22;2994;51.220;4.412;2023-06-04T14:13:58;32.14;15.01
5938;DHT22;2994;51.220;4.412;2023-06-04T14:16:23;32.27;14.71
5938;DHT22;2994;51.220;4.412;2023-06-04T14:18:48;32.24;14.52
5938;DHT22;2994;51.220;4.412;2023-06-04T14:21:14;32.33;14.03
5938;DHT22;2994;51.220;4.412;2023-06-04T14:23:40;32.29;14.20
5938;DHT22;2994;51.220;4.412;2023-06-04T14:26:05;32.23;14.26
5938;DHT22;2994;51.220;4.412;2023-06-04T14:28:31;32.38;13.98
5938;DHT22;2994;51.220;4.412;2023-06-04T14:30:56;32.42;13.23
5938;DHT22;2994;51.220;4.412;2023-06-04T14:33:23;32.01;14.40
5938;DHT22;2994;51.220;4.412;2023-06-04T14:35:49;32.38;13.75
5938;DHT22;2994;51.220;4.412;2023-06-04T14:38:17;32.55;13.81
5938;DHT22;2994;51.220;4.412;2023-06-04T14:40:42;32.63;13.65
5938;DHT22;2994;51.220;4.412;2023-06-04T14:43:10;32.55;13.45
5938;DHT22;2994;51.220;4.412;2023-06-04T14:45:36;32.63;13.01
5938;DHT22;2994;51.220;4.412;2023-06-04T14:48:04;32.63;13.92
5938;DHT22;2994;51.220;4.412;2023-06-04T14:50:29;32.73;13.55
5938;DHT22;2994;51.220;4.412;2023-06-04T14:52:55;32.85;13.82
5938;DHT22;2994;51.220;4.412;2023-06-04T14:55:20;32.85;12.77
5938;DHT22;2994;51.220;4.412;2023-06-04T14:57:46;32.79;12.97
5938;DHT22;2994;51.220;4.412;2023-06-04T15:00:11;32.91;12.83
5938;DHT22;2994;51.220;4.412;2023-06-04T15:02:37;32.96;14.71
5938;DHT22;2994;51.220;4.412;2023-06-04T15:05:02;33.06;13.42
5938;DHT22;2994;51.220;4.412;2023-06-04T15:07:28;33.16;12.75
5938;DHT22;2994;51.220;4.412;2023-06-04T15:09:54;33.21;14.45
5938;DHT22;2994;51.220;4.412;2023-06-04T15:12:20;33.40;12.74
5938;DHT22;2994;51.220;4.412;2023-06-04T15:14:46;33.61;13.95
5938;DHT22;2994;51.220;4.412;2023-06-04T15:17:11;33.94;13.34
5938;DHT22;2994;51.220;4.412;2023-06-04T15:19:37;34.62;11.11
5938;DHT22;2994;51.220;4.412;2023-06-04T15:22:03;36.25;11.69
5938;DHT22;2994;51.220;4.412;2023-06-04T15:24:28;41.20;10.15
5938;DHT22;2994;51.220;4.412;2023-06-04T15:26:55;44.85;6.69
5938;DHT22;2994;51.220;4.412;2023-06-04T15:29:20;47.18;4.03
5938;DHT22;2994;51.220;4.412;2023-06-04T15:31:46;49.18;4.19
5938;DHT22;2994;51.220;4.412;2023-06-04T15:40:53;53.19;1.83
5938;DHT22;2994;51.220;4.412;2023-06-04T15:45:53;55.21;1.25
5938;DHT22;2994;51.220;4.412;2023-06-04T15:48:19;56.04;0.45
5938;DHT22;2994;51.220;4.412;2023-06-04T15:50:45;56.74;-0.36
5938;DHT22;2994;51.220;4.412;2023-06-04T15:53:10;54.82;-1.54
5938;DHT22;2994;51.220;4.412;2023-06-04T15:55:38;50.30;0.03
5938;DHT22;2994;51.220;4.412;2023-06-04T15:58:13;47.09;2.38
5938;DHT22;2994;51.220;4.412;2023-06-04T16:00:41;44.69;2.65
5938;DHT22;2994;51.220;4.412;2023-06-04T16:03:07;42.77;4.11
5938;DHT22;2994;51.220;4.412;2023-06-04T16:05:34;41.07;6.13
5938;DHT22;2994;51.220;4.412;2023-06-04T16:08:02;39.70;6.15
5938;DHT22;2994;51.220;4.412;2023-06-04T16:10:32;38.44;8.20
5938;DHT22;2994;51.220;4.412;2023-06-04T16:13:05;37.35;9.50
5938;DHT22;2994;51.220;4.412;2023-06-04T16:15:30;36.46;9.24
5938;DHT22;2994;51.220;4.412;2023-06-04T16:17:56;35.67;9.74
5938;DHT22;2994;51.220;4.412;2023-06-04T16:20:21;34.98;11.30
5938;DHT22;2994;51.220;4.412;2023-06-04T16:22:49;34.37;11.79
5938;DHT22;2994;51.220;4.412;2023-06-04T16:25:15;33.79;11.91
5938;DHT22;2994;51.220;4.412;2023-06-04T16:27:45;33.27;13.57
5938;DHT22;2994;51.220;4.412;2023-06-04T16:30:11;32.82;14.53